cliquez pour ajouter le site Runraid à vos favoris  English version (google)  Retour à l'accueil Ecrire à l'auteur du site Runraid : Michel Jourdan



Les prochaines courses


Les derniers résultats

cliquez pour visualiser la page complète relatant la chronologie des éruptions du Piton de la Fournaise
éruptions Piton de la Fournaise


Ile de La Réunion

 Diagonale des Fous 

Ecrire au créateur du site : Michel Jourdan
Contact


2012-11-04 - Odyssea la Réunion Hommes

Pour consulter le palmarès d'un coureur, un clic sur son nom !

Vous avez des remarques, corrections, ... sur ces résultats , un clic sur --> pour me transmettre toute information concernant les classements


Odyssea la Réunion Hommes - 2012 : classement des 650 finishers
Place Nom Temps Cat. Club Sexe Clt/cat.
Place Nom Temps Cat. Club Sexe Clt/cat.
1 DUCHEMANN Frederic 00:32:06 SEM - M 1291
2 LAURET Samuel 00:32:06 - M 1415
3 HARISSON Jean Pierre 00:32:33 V1M - M 1285
4 HOAREAU Hary 00:33:03 - M 93
5 LALLEMAND Eric 00:33:47 - M 110
6 DUMOND Jean Claude 00:34:37 - M 50
7 LAPIERRE Alexandre 00:34:46 - M 113
8 ROBERT Jacky 00:35:02 - M 939
9 LALLEMAND Kevin 00:35:05 - M 1417
10 JARD Marius 00:35:31 - M 1000
11 LEPINAY Jean Lie 00:36:06 - M 1184
12 BARDEUR Nicolas 00:36:13 - M 237
13 POQUITA Jean Marie 00:36:16 - M 1232
14 GARCIN Jean emile 00:36:18 - M 466
15 ROBERT Jean Yannis 00:36:20 - M 171
16 BERICHON Eddy 00:36:46 - M 1227
17 GILBRALTA Charles Alfred 00:37:06 - M 74
18 PAUL Jean Michel 00:37:16 - M 1360
19 MARIE MARTHE Rudy 00:37:24 - M 647
20 LEBON Stephane 00:37:27 - M 584
21 LEBON Eric 00:37:35 - M 987
22 FIORI Ludovic 00:37:39 - M 1126
23 Dossard #1432 00:37:44 - M 1432
24 MORIN Dominique 00:37:45 - M 132
25 RACINNE Gerard 00:37:52 - M 166
26 RIVIERE Armand 00:37:59 - M 778
27 MARIE FRANCOISE Fred 00:38:07 - M 1318
28 WAETERAERE Jean 00:38:29 - M 197
29 BARET Frederic 00:38:52 - M 240
30 MANICON Alain 00:39:12 - M 644
31 AURE Lino 00:39:22 - M 226
32 GARDEBIEN Kevin 00:39:27 - M 1316
33 VELIA Jean Alain 00:39:32 - M 1093
34 SAUTRON Armand 00:39:39 - M 805
35 NARAYANASSAMY Sebastien 00:39:44 - M 692
36 JIBANE Didier 00:39:44 - M 105
37 ERIC Lon mon poy 00:40:09 - M 421
38 BONHOMME Alexandre 00:40:12 - M 16
39 Dossard #948 00:40:15 - M 948
40 LEOCADIE Jean Louis 00:40:20 - M 893
41 LEVENEUR Xavier 00:40:21 - M 1290
42 MICHEL Patrice 00:40:31 - M 1309
43 PALAMA Baptiste 00:40:32 - M 1230
44 SAID OMAR Mohamed 00:40:34 - M 795
45 HOAREAU Yannick 00:40:40 - M 522
46 RICHARD Matthieu 00:40:40 - M 771
47 HOAREAU Jean pierre 00:40:54 - M 98
48 BEAUVAL Vincent 00:40:54 - M 250
49 YOUNE KAYE Bernard 00:40:55 - M 1079
50 FOUGEROUX Martin 00:40:56 - M 455
51 CASTILLON Jean Jacques 00:41:06 - M 1327
52 MARECHAL Sergio 00:41:11 - M 646
53 BRIVOIS Cedric 00:41:34 - M 1287
54 DIJOUX Samuel 00:41:36 - M 397
55 HECALE Jean Claude 00:41:48 - M 1196
56 RIVIERE Dominique 00:41:48 - M 1029
57 VITRY Jean Hugues 00:41:51 - M 196
58 GONTHIER David 00:41:52 - M 486
59 PAYET Harry 00:41:53 - M 1024
60 BORDIER Hubert 00:41:53 - M 1229
61 DARTY Gilles 00:41:54 - M 370
62 PAYET Fabrice 00:42:00 - M 983
63 RONGER Christophe 00:42:07 - M 790
64 TECHER Louis 00:42:10 - M 1056
65 ROUSSEL Antoine 00:42:10 - M 792
66 GIVRAN Yannick 00:42:18 - M 1053
67 ESPARON Jean Claude 00:42:22 - M 1006
68 LEONARD Timothe 00:42:23 - M 603
69 PAUZAT Christophe 00:42:31 - M 1292
70 MANGUE Anthony 00:42:44 - M 1289
71 HOAREAU Jean Luc 00:42:52 - M 1334
72 BASQUE Olivier 00:42:59 - M 246
73 BLIN Christophe 00:42:59 - M 279
74 GILEROT Juliano 00:43:00 - M 1137
75 MARTIN Mathieu 00:43:05 - M 1375
76 PAYET Christophe 00:43:08 - M 732
77 RECHE Bernard 00:43:09 - M 168
78 JEANNEAU Willy 00:43:10 V1M - M 541
79 MUSSARD Pascal 00:43:14 - M 1337
80 VIRAMOUTOU Serge 00:43:15 - M 919
81 MALINGA Johnny 00:43:22 - M 1420
82 AKONO Alain 00:43:23 - M 208
83 LAW TCHI KUN Jean Bernard 00:43:24 - M 926
84 ETHEVE Jean Marc 00:43:24 - M 1080
85 MOUCOUTA Ary claude 00:43:25 - M 134
86 MULOT Andre claude 00:43:26 - M 680
87 HUET James 00:43:31 - M 530
88 TROVALET Matthias 00:43:35 - M 855
89 DEUVEILHER Pascal 00:43:44 - M 1115
90 CONNAN Rene 00:43:45 - M 355
91 FONTAINE Sully 00:43:45 - M 1385
92 KABYLE Mehdi 00:43:47 - M 550
93 DIJOUX Alfred joseph 00:43:48 - M 392
94 DEJEAN Fabrice 00:43:48 - M 42
95 EMMA Sebastien 00:43:49 - M 1074
96 JOANY Emmanuel 00:43:50 - M 544
97 VAN HOOLAND Patrick 00:43:51 - M 1119
98 VANDERPERRE Jean marc 00:43:58 - M 864
99 HOARAU Dominique 00:43:59 - M 1326
100 Dossard #1431 00:44:00 - M 1431
101 FONTAINE Remy 00:44:01 - M 453
102 LAVOGIEZ Guillaume 00:44:04 - M 574
103 PALAMA Tony 00:44:04 - M 706
104 LEBON Alex 00:44:05 - M 897
105 GARDEBIEN Sylvano 00:44:13 - M 1154
106 SENG PINE Cedric 00:44:15 - M 810
107 NAYAGON Elien 00:44:19 - M 143
108 JEAN BART Gerard 00:44:20 - M 103
109 POIRIER Herve 00:44:21 - M 750
110 LEZAIS Erick 00:44:22 - M 609
111 GRAVELAT Olivier 00:44:25 - M 492
112 BEGUE Jean Laurent 00:44:27 - M 1400
113 PRIVAT Etienne 00:44:28 - M 754
114 PAYET Mickael 00:44:38 - M 719
115 CHOPINET Idriss 00:44:40 - M 1422
116 FOUARD Nicolas 00:44:42 - M 454
117 OUNAMALE Frederic 00:44:43 - M 146
118 MAILLOT Gerard 00:44:45 - M 627
119 GRONDIN Fabien 00:44:49 - M 495
120 THOMAS Pascal 00:44:50 - M 1011
121 GRONDIN Leon 00:44:53 - M 1072
122 MERLO Michel 00:44:54 - M 1307
123 DORLA Jean Gerald 00:44:55 - M 1364
124 CAZANOVE Thierry 00:44:58 - M 326
125 ROBERT Joel 00:44:59 - M 1211
126 MUSSARD Jean Rene 00:45:00 - M 1037
127 GRONDIN Pascal 00:45:00 - M 905
128 MARAALY Frederie 00:45:01 - M 124
129 RIVIERE Harry 00:45:01 - M 785
130 MAREE Yohan 00:45:03 - M 1099
131 FONTAINE Jean michel 00:45:03 - M 448
132 HOARAU Frederic 00:45:04 - M 89
133 PERCRULE Felix 00:45:05 - M 1401
134 PARTEL Patrick 00:45:06 - M 940
135 DE GUIGNE Philippe 00:45:08 - M 374
136 LAURET Max 00:45:14 - M 116
137 ERUDEL Mickael 00:45:15 - M 424
138 THEREZO Paul Emile 00:45:17 - M 1098
139 MAGOUTIER Philippe 00:45:18 - M 626
140 HAMILCARO Juanito 00:45:21 - M 936
141 BOUCHER Guillaume 00:45:22 - M 21
142 LE ROUX Stephane 00:45:22 - M 1220
143 RIVELY Mikael 00:45:30 - M 169
144 LEONARD Florient 00:45:31 - M 602
145 CAPET Mario 00:45:39 - M 316
146 LE GLOANIC Guenhael 00:45:41 - M 1223
147 GOUAILLARDET Ivan 00:45:43 - M 489
148 BRANDEIS Pierre emmanuel 00:45:44 - M 300
149 Dossard #4399 00:45:47 - M 4399
150 ELLAMA Stephane 00:45:53 - M 930
151 TAOCHY Patrick 00:45:55 - M 1041
152 BERICHON Bernard 00:45:56 - M 1055
153 LUCAS Jean louis 00:45:58 - M 619
154 ALENDROIT Clement 00:46:00 - M 1061
155 LEONARD Michel 00:46:00 - M 1370
156 MAILLOT Jean Michel 00:46:05 - M 1155
157 MORBY Frederic 00:46:07 - M 671
158 TURPIN Xavier 00:46:08 - M 860
159 GRONDIN Joselito 00:46:10 - M 499
160 DELAHAYE Yvan 00:46:15 - M 1271
161 GRONDIN Patrick 00:46:17 - M 1381
162 LATIL Laurent 00:46:21 - M 1222
163 EDMOND David 00:46:22 - M 978
164 FONTAINE Cyrille joseph 00:46:27 - M 449
165 QUEST Philippe 00:46:28 - M 979
166 TIRONE Laurent 00:46:32 - M 192
167 BLANCA Serge 00:46:33 - M 957
168 GAUVIN Josian 00:46:35 - M 1132
169 LESQUELIN Philippe 00:46:36 - M 1133
170 ROGERO Neven 00:46:38 - M 1390
171 PERIASSAMY J Philipe 00:46:39 - M 1139
172 CHANE LI SEK Gerald 00:46:40 - M 34
173 MOREL Frederic 00:46:40 - M 673
174 HOARAU Frederic 00:46:41 - M 518
175 MOKRAB Mohand 00:46:44 - M 664
176 LEVENEUR Willy 00:46:46 - M 606
177 Dossard #2974 00:46:48 - M 2974
178 CHAMPAGNE Laurent 00:46:49 - M 334
179 CHANE KI CHUNE Bernard 00:46:50 - M 336
180 JORON Jean Francois 00:46:51 - M 106
181 BEAUPAGE Dany 00:46:51 - M 1226
182 MAILLOT David 00:46:54 - M 1340
183 ORBOIN Joseph 00:46:55 - M 1173
184 FRANCOISE Baptiste 00:47:00 - M 462
185 CARON Alexandre 00:47:01 - M 320
186 PAPATY Cedric 00:47:09 - M 707
187 BASQUE Teddy 00:47:10 - M 247
188 CHALPEAU Jacques 00:47:11 - M 1372
189 RAYEROUX Nicolas 00:47:11 - M 1004
190 Dossard 4374 00:47:12 - M 4374
191 ABEMONTI Jean Marc 00:47:15 - M 1104
192 HAMILCARO Jean Francois 00:47:19 - M 1293
193 BOUCHER Jean philippe 00:47:25 - M 288
194 PAVY Sebastien 00:47:27 - M 712
195 PAPAILHOU Xavier 00:47:27 - M 1149
196 SEYER Leo 00:47:29 - M 813
197 JETSHAN Amar 00:47:30 - M 543
198 SITAL DAHONE Francis 00:47:31 - M 815
199 FANGUIMACHE Jean luc 00:47:32 - M 431
200 RICHAUVET Josian 00:47:33 - M 1274
201 PAYET Daniel 00:47:34 - M 1010
202 JOLY Jean marc 00:47:37 - M 545
203 LUCIAN Aurelien didier 00:47:38 - F 621
204 CHESLET John 00:47:39 - M 341
205 CLAIN Jacky 00:47:40 - M 1201
206 AURECHE Gilbert 00:47:40 - M 227
207 GONTHIER Expedit 00:47:41 - M 485
208 LAW SEK Jean luc 00:47:41 - M 576
209 JOURDREIN Andre 00:47:42 - M 547
210 PAUSE Jeannick 00:47:44 - M 1102
211 RANGUIN Stephane 00:47:45 - M 167
212 BERANGER Sylvain 00:47:46 - M 268
213 THOMAS Andre Claude 00:47:50 - M 1322
214 ROBERT Louis Henry 00:47:51 - M 1407
215 THIERRY Abraham 00:47:52 SEM - M 840
216 LENCLUME Marie Guy 00:47:53 - M 1117
217 BERRICHE Abdelkrim 00:47:53 - M 1398
218 MANSUY Pierre 00:47:56 - M 645
219 PAYET Benjamin 00:48:07 - M 730
220 MAILLOT Gerard 00:48:12 - M 632
221 ROBERT Kevin 00:48:14 - M 789
222 CASINHAS Stephane 00:48:14 - M 1332
223 GRONDIN Rodolphe 00:48:17 - M 500
224 DUPUY Laurent 00:48:18 - M 408
225 NATIVEL Pierre 00:48:19 - M 1195
226 MUSSARD Alain 00:48:20 - M 1065
227 CHESSE Jean christophe 00:48:23 - M 342
228 BEAUVAL Philippe 00:48:24 - M 252
229 CREUZET Jean Claude 00:48:25 - M 38
230 SABATIER Gilles Frederic 00:48:27 - M 1217
231 BARRET Erwan 00:48:28 - M 242
232 MANZARI Michel 00:48:29 V1M - M 1203
233 MARTIN Pierre 00:48:30 - M 651
234 M MADI MOINDJIE bakar 00:48:31 - M 625
235 SELLY Bernard 00:48:32 - M 1231
236 SAHRAOUI Abdelkrim 00:48:33 - M 1406
237 RAYEROUX Benoit 00:48:34 - M 1003
238 DOMITILE Jose 00:48:35 - M 1071
239 LEVENEUR Luguy 00:48:40 - M 122
240 DUBARD Claude 00:48:49 - M 47
241 DELPIERRE Bernard 00:48:50 - M 382
242 RENAMBATZ Raphael 00:48:53 - M 768
243 SAUVANET Gaetan 00:48:58 - M 946
244 AMRATE Fouad 00:48:59 - M 1414
245 BREYSSE Olivier 00:49:00 - M 305
246 LIGDAMIS Robert 00:49:00 - M 1331
247 LEONARD Corentin 00:49:01 - M 1371
248 CAPIT Christian 00:49:02 - M 317
249 PAYET Jean Bernard 00:49:02 - M 155
250 BENARD Samuel 00:49:04 - M 1057
251 DIJOUX Jean Francois 00:49:05 - M 1025
252 AGENOR DUTREMBLAY Danick 00:49:06 - M 205
253 CERIEZ Pascal 00:49:06 - M 328
254 GOSSARD Sylvain 00:49:07 - M 989
255 NAGOU Charles 00:49:08 - M 991
256 THEMIDOR Ludovic 00:49:11 - M 190
257 MUNGROO Aumduth 00:49:12 - M 682
258 SERMET Romain 00:49:14 - M 811
259 LANDRON Fanch 00:49:18 - M 563
260 PAYET Patrick 00:49:24 - M 720
261 CHARCELLAY Benjamin 00:49:28 - M 338
262 GOMEZ Raphael 00:49:30 - M 481
263 LELOUP Julien 00:49:31 - M 597
264 PILE Christophe 00:49:32 - M 743
265 DIJOUX Pascal 00:49:33 - M 1135
266 TIPVEAU Sebastien 00:49:37 - M 953
267 LEFEVRE Pierre etienne 00:49:43 - M 594
268 LEGROS Henri Claude 00:49:49 - M 1040
269 LEGROS Mathieu 00:49:50 - M 1036
270 TECHER Jean davy 00:49:51 - M 832
271 TREMBLAY Jerome 00:49:52 - M 854
272 MINATCHY Julien 00:49:53 - M 659
273 ISAMBERT Cedric 00:49:54 - M 923
274 BRUNETTE Christophe 00:49:55 - M 949
275 BOYER Jacky 00:49:56 - M 25
276 FOUGEROUX Jean Yves 00:49:56 - M 67
277 MOUROUVIN Gael 00:49:57 - M 679
278 LUCIAN Jean hugues 00:50:01 - M 622
279 DURAND Jean christophe 00:50:04 - M 411
280 LALLEMAND Jean yves 00:50:07 - M 556
281 PEIGNE Jean louis 00:50:08 - M 734
282 RIVIERE Mickael 00:50:09 - M 787
283 AYE Jean denis 00:50:10 - M 229
284 TECHER Alex 00:50:14 - M 828
285 CHEVRET Jerome 00:50:22 - M 343
286 BEGUE Jean Raymond 00:50:22 - M 11
287 BONNET Stephane 00:50:23 - M 284
288 BARET Jean michel 00:50:24 - M 238
289 LEBRUN Jean jacques 00:50:25 - M 590
290 FRANCILLON Boris 00:50:32 - M 460
291 BOYER Jean michel 00:50:36 - M 298
292 FONTAINE Camille 00:50:36 - M 450
293 FRANCOISE Alain 00:50:37 - M 461
294 RICHARD William 00:50:38 - M 892
295 Dossard 1016 00:50:40 - M 1016
296 BOMINTHE Guillaume 00:50:41 - M 1412
297 BOYER Nicol 00:50:42 - M 1408
298 BOYER Christophe 00:50:43 - M 24
299 Dossard #2076 00:50:44 - M 2076
300 Dossard #1808 00:50:46 - M 1808
301 MAILLY Romain 00:50:56 - M 639
302 Dossard #1433 00:51:00 - M 1433
303 MURAT Gilles 00:51:04 - M 1094
304 NADAUD Xavier 00:51:08 - M 1305
305 THIEN AH KOON Frederic 00:51:09 - M 1114
306 PAYET Ludovic 00:51:10 - M 728
307 ASSATI Ludovic 00:51:16 - M 1012
308 JALMA Arnaud 00:51:17 - M 1047
309 TECHER Georges 00:51:21 - M 1224
310 MARLIERE Nicolas 00:51:25 - M 125
311 MOUNIAMA Aime 00:51:27 - M 135
312 BONNEAU Freddy 00:51:31 - M 283
313 SOUEVAMANIEN Hugues 00:51:33 - M 1044
314 MOINEREAU Mathieu 00:51:34 - M 663
315 ANTIER Gilbert 00:51:35 - M 4
316 ANTIER Raphael 00:51:36 - M 5
317 ETHEVE Yann laurent 00:51:37 - M 425
318 LATCHIMY Georges 00:51:42 - M 566
319 ADRASSE Melvin 00:51:44 - M 1286
320 HOARAU Reginald 00:51:45 - M 87
321 BARRUCAND Frederic 00:51:55 - M 243
322 LECOMTE Adrien 00:51:56 - M 1359
323 HOARAU Alyre 00:51:56 - M 997
324 LEVESQUE Denis 00:51:57 - M 1246
325 BONNEAU Pierre Jocelyn 00:51:57 - M 18
326 DEVULDER Thierry 00:52:01 - M 1378
327 VITRY Gerard 00:52:05 - M 904
328 VALINCOURT Alain 00:52:06 - M 1103
329 REES Nicolas 00:52:07 - M 765
330 ELLAYA Harry 00:52:08 - M 418
331 MYTRA Thierry 00:52:12 - M 139
332 ABLANCOURT Freddo 00:52:16 - M 1052
333 GUINEFOLLEAU Marc 00:52:17 - M 84
334 TSANG CHIN SANG Ronan 00:52:19 - M 856
335 VIADERE Max 00:52:19 - M 1346
336 GONNEAU Jean Louis 00:52:22 - M 75
337 TECHER Nicolas 00:52:23 - M 831
338 PHILEAS Rosaire 00:52:24 - M 1284
339 BENARD Alde 00:52:25 - M 1187
340 ROCROU Gerard 00:52:27 - M 1355
341 CADET Alexandre 00:52:27 - M 1329
342 TURBY Kevin 00:52:30 - M 993
343 Dossard #1194 00:52:40 - M 1194
344 SEGUIN Elliot 00:52:41 - M 1082
345 ADRAS Regis 00:52:41 - M 1032
346 LOCATE Hosman 00:52:42 - M 992
347 DELISE Philippe 00:52:43 - M 379
348 FIORINA Gianino 00:52:44 - M 442
349 MARDEMOUTOU J Pierre 00:52:47 - M 1145
350 Dossard #1179 00:52:48 - M 1179
351 MORAND Joel 00:52:54 - M 670
352 TECHER Alexis 00:52:56 - M 188
353 THOMAS Laurent 00:52:57 - M 1405
354 HOOLODOR Thierry 00:52:57 - M 1330
355 RAHELIARINIVO Hary 00:52:59 - M 759
356 Dossard #5064 00:53:00 - M 5064
357 LANDAIS Johnny 00:53:00 - M 560
358 MURAT Laurent 00:53:01 - M 136
359 ROCHEFEUILLE Noel 00:53:02 - M 175
360 YEUNG Serge 00:53:05 - M 888
361 FOLIO Brice 00:53:06 - M 64
362 GONNEAU Lavallee 00:53:07 - M 483
363 GRONDIN Damien 00:53:08 - M 82
364 Dossard #2353 00:53:10 - M 2353
365 LAPOELE Alain 00:53:11 - M 565
366 LEBEAU Bernard 00:53:13 - M 924
367 DIJOUX Jimmy 00:53:13 - M 393
368 HUBERT Sebastien 00:53:22 - M 529
369 BOURBON Jean joseph eliard 00:53:22 - M 292
370 PAYET Antoine 00:53:28 - M 726
371 GONTHIER Romain 00:53:29 - M 1304
372 DELEAGE Thierry 00:53:30 - M 941
373 HOAREAU Gino 00:53:36 - M 1377
374 GONTHIER Gregory 00:53:38 - M 487
375 PAYET Jean francois 00:53:45 - M 725
376 ETHEVE Clement 00:53:46 - M 60
377 BACHELEY Laurent 00:53:47 - M 231
378 LAFFITTE Jean Bernard 00:53:51 - M 1243
379 SOLENTE Joachim 00:53:58 - M 819
380 BERGOULI Christophe 00:54:02 - M 269
381 LOUBARESSE Serge 00:54:06 - M 996
382 BENARD Jonathan 00:54:07 - M 265
383 HOARAU Patrick 00:54:08 - M 92
384 PERLOTTI Eric 00:54:13 - M 1031
385 CAZANOVE Francois 00:54:14 - M 325
386 ASSOUMANI Said 00:54:21 - M 7
387 HOAREAU Stephane 00:54:24 - M 96
388 ROBERT Gilles 00:54:25 - M 172
389 LEBON Emmanuel 00:54:26 - M 1013
390 LEPERLIER Agniel 00:54:30 - M 1076
391 LORNUEL Paul 00:54:33 - M 963
392 PALAMA Olivier 00:54:34 - M 703
393 ROBERT Roinito 00:54:34 - M 173
394 TESSIER Christian 00:54:42 - M 1345
395 TETIA William 00:54:46 - M 1008
396 FUMA Bernard 00:54:53 - M 71
397 PIERRAT Thierry 00:54:54 - M 937
398 VITRY Guibert 00:54:55 - M 881
399 CARO Paul Hugues 00:54:56 - M 913
400 LUCAS Fabrice 00:55:00 - M 1210
401 LUCAS Didier 00:55:01 - M 1209
402 CRESPIN Eddy 00:55:01 - M 362
403 BENAICH Philippe 00:55:03 - M 259
404 DENNEMONT Gerard 00:55:04 - M 1015
405 FONTAINE Axel 00:55:04 - M 66
406 ACHERITEGUY Cyrille 00:55:05 - M 200
407 VIDOT Francois 00:55:06 - M 1428
408 MAILLOT Freddel 00:55:07 - M 901
409 MARTIN Yannick 00:55:10 - M 927
410 RAMBAULT Philippe 00:55:10 - M 921
411 Dossard #1943 00:55:11 - M 1943
412 LEBIAN Julien 00:55:14 - M 583
413 PAYET Patrice 00:55:15 - M 717
414 PARIS Julien 00:55:16 - M 709
415 FAUQUET Olivier 00:55:22 - M 1363
416 HOAREAU Fabrice 00:55:23 - M 95
417 FIBAC Jean Bernard 00:55:26 - M 63
418 BOULESTIN Christophe 00:55:26 - M 22
419 CACHIA Jean jacques 00:55:34 - M 311
420 BEJOINT Sebastien 00:55:34 - M 254
421 JESSUS Jean Luc 00:55:35 - M 995
422 REFALO Stephane 00:55:42 - M 766
423 GAMARUS Joseph 00:55:46 - M 1023
424 HUET Jacky 00:55:48 - M 1014
425 CARLOT Fabrice 00:55:48 - M 30
426 PAYET David 00:55:49 - M 731
427 BENARD Jean jacques 00:55:50 - M 266
428 MANASTERSKI Jean paul 00:55:51 - M 643
429 NAUD Gerard 00:55:51 - M 695
430 VITRY Jean philippe 00:55:51 - M 878
431 LAURENCE Henry 00:55:51 - M 1374
432 HOARAU Cedric 00:55:51 - M 1240
433 AUBIN Brice 00:55:51 - M 1279
434 TETIA Jean jacques 00:55:51 - M 836
435 TAOCHY Didier 00:55:51 - M 824
436 PFUETZENREUTER Diego 00:55:51 - M 1109
437 BANOR Alain 00:55:51 - M 235
438 FEROUSSIER Elie romaric 00:55:52 - M 437
439 GRIMAUD Remy 00:55:52 - M 80
440 MASSARDIER Stephane 00:55:52 - M 655
441 LARCHER Christian 00:55:52 - M 114
442 NKOMBE Lionel 00:55:52 - M 698
443 AARON Jean Francois 00:55:52 - M 1
444 MAILLOT Gilles 00:55:52 - M 634
445 BASTIDE Nicolas 00:55:52 - M 9
446 ADRASSE Pascal 00:55:52 - M 202
447 MARTIN Benoit 00:55:52 - M 1349
448 LONI Samuel 00:55:52 - M 1176
449 RIVIERE Christian 00:55:52 - M 779
450 MERLO Johnny 00:55:52 - M 1198
451 BATAILLE Jean Luc 00:55:52 - M 895
452 SAPIN Dominique 00:55:52 - M 803
453 PAQUIRY Evan 00:55:52 - M 917
454 BOITARD Expedit 00:55:52 - M 1051
455 GOUBET Dominique 00:55:52 - M 78
456 BOURDAIS Gilles 00:55:52 - M 1088
457 VENANT Olivier 00:55:52 - M 865
458 LORION Bruno 00:55:52 - M 1411
459 RUBIO Laurent 00:55:52 - M 1005
460 PETIT Eugene 00:55:52 - M 738
461 PARAME Richard 00:55:52 - M 1315
462 ROUSSEAU Olivier 00:55:52 - M 178
463 ALAMELOU Laurent 00:55:52 - M 209
464 AJORQUE Jean Philippe 00:55:52 - M 3
465 CLABE Alain 00:55:52 - M 347
466 PAYET Frederic yannis 00:55:52 - M 723
467 HONORINE Willy 00:55:52 - M 525
468 ROUSSEL Paul 00:55:52 - M 793
469 ETHEVE Jean Luc 00:55:52 - M 57
470 ALPHONSINE Jean rene 00:55:52 - M 213
471 LALLEMAND Hugues 00:55:53 - M 555
472 MONTIGNY Thibaut 00:55:53 - M 129
473 AMIRENE Jean Bernard 00:55:57 - M 1216
474 HIREL Eugene 00:55:58 - M 1301
475 JACQUIER Christophe 00:55:58 - M 536
476 PEUPIH Patrick 00:56:06 - M 161
477 DOUVILLE Sebastien 00:56:09 - M 405
478 BARDIN Erwan 00:56:13 - M 1403
479 PAYET Jean philippe 00:56:14 - M 724
480 LAW ATHION William 00:56:16 - M 575
481 CORRE Pascal 00:56:22 - M 357
482 BOURRINET Mathieu 00:56:23 - M 1215
483 VALLY Shamir 00:56:23 - M 863
484 FOCK SI MING Kevin 00:56:24 - M 445
485 DURAND JOVER Charles 00:56:25 - M 413
486 BACHOUR Naman 00:56:27 - M 1376
487 COLTER Jean Lilian 00:56:29 - M 37
488 VILLETTE Sebastien 00:56:30 - M 875
489 BASSAC Philippe 00:56:32 - M 1228
490 ROCHELLE Sylvain 00:56:33 - M 1365
491 FLORENT Kenneth 00:56:41 - M 444
492 CHAVANNE Ludovic 00:56:43 - M 339
493 FLORENT Charles 00:56:45 - M 443
494 CRENN Michel 00:56:53 - M 361
495 VIDAUD Henri 00:56:54 - M 873
496 LEMAITRE Laurent 00:56:54 - M 600
497 DELAUNAY M 00:56:55 - M 1127
498 AH YUEN IN YUNG Stephane 00:56:59 - M 206
499 FOUGERAIS Jullian 00:57:03 - M 1174
500 MOREL J Bernard 00:57:06 - M 1141
501 GOURAUD Gilles 00:57:11 - M 1297
502 LEBON Claude Andre 00:57:12 - M 119
503 PIZON Francis 00:57:13 - M 747
504 HOAREAU Guillaume 00:57:14 - M 519
505 BOYER Nicolas 00:57:19 - M 1366
506 TOUCOULA Freddy 00:57:27 - M 846
507 MAILLOT Claudel 00:57:28 - M 633
508 AUER Thierry 00:57:29 - M 225
509 PAYET Rodolphe 00:57:32 - M 729
510 CROS Florent 00:57:32 - M 364
511 RIVIERE Sebastien 00:57:35 - M 786
512 VERGOZ Desire 00:57:42 - M 868
513 RUISSIER Bernard 00:57:43 - M 1237
514 HOAREAU Wildfrid 00:57:50 - M 97
515 ICHISSAMBOU Richard 00:57:52 - M 1413
516 Dossard #9260 00:57:55 - M 9260
517 LALLEMAND Joel 00:58:00 - M 1152
518 BRUGERON Pascal 00:58:02 - M 309
519 LEYNAUD Gilbert 00:58:14 - M 607
520 BERTOLOTTI Maxime 00:58:17 - M 1248
521 DELPECH Christophe 00:58:17 - M 381
522 KOURIO Cedric 00:58:18 - M 551
523 GILOUPPE Laurent 00:58:21 - M 476
524 VAITILINGOM Alexandre 00:58:22 - M 998
525 NORMAND Franck 00:58:24 - M 1204
526 SANTOS Samuel 00:58:27 - M 801
527 HAMOT Jean pierrot 00:58:28 - M 503
528 ROSSIGNOL Jean Paul 00:58:29 - M 1409
529 PAYET Jean Luc 00:58:30 - M 158
530 GIRONCELLE Ulysse 00:58:33 - M 479
531 ARABOUX David 00:58:39 - M 216
532 CESAR Jean cedric 00:58:43 - M 330
533 Dossard #2205 00:58:44 - M 2205
534 TAILAMA Michel 00:58:47 - M 1131
535 MAILLOT Mickael 00:58:48 - M 1180
536 PAYET Fabrice 00:58:53 - M 1338
537 FONTAINE Hugues 00:58:55 - M 452
538 DEPECHE Alix 00:58:56 - M 1275
539 PAYET Patrick 00:58:59 - M 1324
540 FUMA Emmanuel 00:58:59 - M 70
541 SALAMALA Alix 00:59:00 - M 914
542 CRAMPE Nicolas 00:59:01 - M 969
543 DOROTHY Aristide 00:59:01 - M 1419
544 SMITH Marcel 00:59:01 - M 817
545 SAVIGNY Jean Luc 00:59:05 - M 179
546 DURHONE Judex 00:59:05 - M 1418
547 HONORINE Joanny 00:59:06 - M 526
548 LACAILLE Jean Luc 00:59:09 - M 1157
549 NAHON Sebastien 00:59:11 - M 920
550 TOURTEAU Emmanuel 00:59:11 - M 848
551 OGNARD Giovanni 00:59:12 - M 1101
552 BIRIEN Gregoire 00:59:14 - M 1281
553 ARIAPOUTRI David 00:59:15 - M 1302
554 ROGER Didier 00:59:15 - M 1097
555 DE CHATEAUVIEUX Sebastien 00:59:16 - M 373
556 FARDEL Jean loup 00:59:22 - M 433
557 EBY Emmanuel 00:59:28 - M 416
558 DIJOUX Jerome 00:59:29 - M 395
559 RIVIERE Jean patrick 00:59:30 - M 780
560 PAYET Remy 00:59:34 - M 722
561 BIANCHI Alain 00:59:37 - M 274
562 LANDAIS Jackson 00:59:45 - M 561
563 CARO Felix 00:59:46 - M 319
564 HOARAU Brice 00:59:47 - M 91
565 BOUCHER Edmond Borice 00:59:49 - M 20
566 VELNA Herve 00:59:49 - M 1296
567 PAYET Lilian 00:59:52 - M 156
568 DE BOLLIVIER Claude 00:59:54 - M 371
569 MAZIALIVOUA Wildfred 00:59:57 - M 127
570 BELGRADE Germain 01:00:02 - M 255
571 ARAYE Radji 01:00:03 - M 218
572 PALAMA Cedric 01:00:05 - M 705
573 LEROY Cedric 01:00:10 - M 1073
574 DOMITIEN Yoni 01:00:27 - M 402
575 CHAN OU TEUNG 01:00:28 - M 337
576 DEVEAUX 01:00:30 - M 1038
577 CADET 01:00:31 - M 313
578 BASSAN 01:00:32 - M 1049
579 LANDAIS 01:00:35 - M 562
580 PIGEON 01:00:40 - M 741
581 CHOPINET 01:00:47 - M 346
582 MALOCHET 01:00:50 - M 1356
583 POUDROUX 01:00:55 - M 1050
584 GOPAL 01:00:57 - M 488
585 FONTAINE 01:01:02 - M 967
586 MAILLOT 01:01:08 - M 628
587 MOUTOUKICAENIN 01:01:11 - M 1159
588 TECHER 01:01:11 - M 830
589 TAOCHY 01:01:20 - M 184
590 DENNEMONT 01:01:23 - M 383
591 MOUNIAMA 01:01:26 - M 988
592 PRADEL FERNANDES 01:01:34 - M 753
593 MAILLOT 01:01:42 - M 630
594 FOURNERIE 01:01:56 - M 458
595 TAOCHY 01:01:57 - M 186
596 DEMEY 01:01:58 - M 1113
597 RAMAYE 01:01:59 - M 1191
598 TAOCHY 01:02:04 - M 185
599 DUCAP 01:02:20 - M 49
600 HARMS 01:02:34 - M 85
601 ROULLOT 01:02:34 - M 1317
602 BARDIN 01:02:35 - M 1404
603 ARABOUX 01:02:41 - M 217
604 ANTOINE 01:02:49 - M 1054
605 DORMEUIL 01:02:59 - M 1188
606 CHOLIEU 01:03:05 - M 344
607 CAILLOL 01:03:07 - M 1259
608 MAILLOT 01:03:38 - M 637
609 LEFEVRE 01:03:38 - M 1252
610 LEFEVRE 01:03:44 - M 1255
611 DUBESSET 01:03:45 - M 1423
612 Dossard 01:03:47 - M 2855
613 ADAM 01:03:48 - M 1269
614 SAVIGNY 01:03:50 - M 180
615 AFFEJEE 01:03:55 - M 203
616 LEPINAY 01:03:55 - M 1426
617 MUSTUN 01:04:04 - M 687
618 NATIVEL 01:04:09 - M 1026
619 CORRE 01:04:10 - M 1264
620 OUZAN 01:04:12 - M 1427
621 NAYAGOM 01:04:17 - M 1250
622 Dossard 01:04:18 - M 2723
623 RAMBAUD 01:04:26 - M 1425
624 MADILHAC Arnaud 01:04:27 - M 1254
625 SAUTRON 01:04:35 - M 806
626 LENCLUME 01:04:53 - M 601
627 ERINACINT 01:04:53 - M 422
628 BENARD 01:05:12 - M 1265
629 BERRICHON 01:05:15 - M 1266
630 SANDRE 01:05:16 - M 1261
631 PARTOUCHE 01:05:38 - M 925
632 GAULTIER 01:05:47 - M 469
633 EMERENTIENNE 01:05:48 - M 420
634 THIA KIME 01:06:03 - M 838
635 PALAMA 01:06:05 - M 148
636 BRISSET 01:06:14 - M 1162
637 MUSSARD 01:06:32 - M 137
638 LOYALLE 01:06:33 - M 618
639 BADAMIA 01:06:35 - M 1160
640 BADAMIA 01:06:36 - M 1161
641 CHERON 01:06:37 - M 1395
642 NOEL 01:06:46 - M 1310
643 LUCAS 01:06:47 - M 620
644 Dossard 01:06:49 - M 1388
645 FERRERE 01:07:00 - M 62
646 TANG TAYE 01:07:04 - M 821
647 DELMONT 01:07:04 - M 1207
648 RANGAMA PETCHY 01:07:09 - M 899
649 Dossard 01:07:18 - M 6736
650 PAYET 01:10:01 - M 151


ReferencementCe site est listé dans la catégorie Sport : Sports extrêmes Dictionnaire
| Accueil | La Réunion  Vue du ciel | Météo | Cyclones | Volcan | Cirques de Mafate , Cilaos , Salazie | Photos Randonnées | Randonnées Réunion: Randos Espiègle , Courses montagne | Diagonale des Fous |  Marathon des Sables | Voyages Les stats du site | Fonds écran | Plan du site | Blog de runraid | Galerie photos Sport Réunion |